createdAt,value
2022-10-22T00:04:05.451Z,5.197324414715719
2022-10-22T00:15:50.564Z,4.461538461538462
2022-10-22T00:22:18.673Z,4.775919732441472
2022-10-22T00:33:56.687Z,4.839464882943144
2022-10-22T00:48:07.805Z,4.2441471571906355
2022-10-22T00:54:35.721Z,4.20066889632107
2022-10-22T01:01:07.936Z,4.913043478260869
2022-10-22T01:07:37.124Z,4.0
2022-10-22T01:14:06.735Z,4.120401337792642
2022-10-22T01:21:22.993Z,4.79933110367893
2022-10-22T01:28:04.944Z,4.525083612040134
2022-10-22T01:34:33.823Z,4.946488294314381
2022-10-22T01:41:01.010Z,2.8327759197324416
2022-10-22T02:00:37.335Z,3.57190635451505
2022-10-22T02:07:05.058Z,3.1672240802675584
2022-10-22T02:13:33.683Z,2.0869565217391304
2022-10-22T02:20:04.855Z,2.6153846153846154
2022-10-22T02:26:43.239Z,4.304347826086956
2022-10-22T02:33:11.016Z,2.5250836120401337
2022-10-22T02:40:33.877Z,1.7023411371237458
2022-10-22T02:47:01.133Z,2.2240802675585285
2022-10-22T02:53:31.397Z,1.9966555183946488
2022-10-22T03:00:01.034Z,3.2642140468227425
2022-10-22T03:06:30.961Z,2.7725752508361206
2022-10-22T03:17:10.062Z,3.240802675585284
2022-10-22T03:29:04.371Z,2.612040133779264
2022-10-22T03:49:26.523Z,4.130434782608695
2022-10-22T03:58:40.965Z,5.187290969899665
2022-10-22T04:15:22.839Z,3.4448160535117056
2022-10-22T04:22:12.656Z,3.1103678929765888
2022-10-22T04:28:51.917Z,3.7525083612040135
2022-10-22T04:45:44.352Z,4.217391304347826
2022-10-22T04:52:54.423Z,4.866220735785953
2022-10-22T05:03:05.877Z,5.709030100334449
2022-10-22T05:16:08.338Z,5.183946488294314
2022-10-22T05:23:43.716Z,4.575250836120401
2022-10-22T05:30:14.698Z,4.474916387959866
2022-10-22T05:36:47.239Z,4.187290969899665
2022-10-22T05:43:24.866Z,3.076923076923077
2022-10-22T05:49:54.339Z,4.287625418060201
2022-10-22T05:56:23.810Z,3.0100334448160537
2022-10-22T06:05:04.483Z,4.013377926421405
2022-10-22T06:11:36.048Z,2.5752508361204014
2022-10-22T06:18:08.750Z,4.822742474916388
2022-10-22T06:24:50.553Z,5.829431438127091
2022-10-22T06:31:54.694Z,4.632107023411371
2022-10-22T06:43:38.095Z,4.9799331103678925
2022-10-22T06:56:37.944Z,6.461538461538462
2022-10-22T07:09:27.517Z,4.050167224080267
2022-10-22T07:18:09.496Z,4.505016722408027
2022-10-22T07:24:40.519Z,5.518394648829432
2022-10-22T07:31:25.718Z,4.8595317725752505
2022-10-22T07:38:01.085Z,4.183946488294314
2022-10-22T07:44:32.257Z,5.0602006688963215
2022-10-22T07:51:03.811Z,4.193979933110368
2022-10-22T08:06:45.795Z,4.2842809364548495
2022-10-22T08:13:17.475Z,3.705685618729097
2022-10-22T08:19:52.107Z,4.1003344481605355
2022-10-22T08:28:04.909Z,4.986622073578595
2022-10-22T08:34:33.494Z,2.6187290969899664
2022-10-22T08:41:07.005Z,4.013377926421405
2022-10-22T08:47:38.264Z,2.3244147157190636
2022-10-22T08:56:03.354Z,3.1471571906354514
2022-10-22T09:02:35.459Z,3.234113712374582
2022-10-22T09:09:07.540Z,2.37123745819398
2022-10-22T09:15:42.613Z,2.130434782608696
2022-10-22T09:22:16.101Z,2.3377926421404682
2022-10-22T09:35:23.059Z,2.0936454849498327
2022-10-22T09:41:57.619Z,2.0468227424749164
2022-10-22T09:51:55.069Z,1.9030100334448161
2022-10-22T09:58:25.785Z,1.9966555183946488
2022-10-22T10:07:39.073Z,1.4481605351170568
2022-10-22T10:14:13.105Z,1.9531772575250836
2022-10-22T10:20:44.708Z,2.859531772575251
2022-10-22T10:37:35.021Z,2.317725752508361
2022-10-22T10:44:10.157Z,1.9531772575250836
2022-10-22T10:50:39.623Z,1.9030100334448161
2022-10-22T11:01:21.770Z,1.8026755852842808
2022-10-22T11:12:58.349Z,2.1237458193979935
2022-10-22T11:19:46.218Z,2.4046822742474916
2022-10-22T11:26:19.058Z,1.5317725752508362
2022-10-22T11:32:48.063Z,2.1939799331103678
2022-10-22T11:39:16.605Z,2.1839464882943145
2022-10-22T11:45:45.321Z,1.6889632107023411
2022-10-22T11:52:13.974Z,2.1939799331103678
2022-10-22T11:58:41.997Z,2.0234113712374584
2022-10-22T12:05:10.378Z,2.37123745819398
2022-10-22T12:12:07.313Z,2.2040133779264215
2022-10-22T12:18:36.395Z,3.0936454849498327
2022-10-22T12:28:02.458Z,2.4548494983277593
2022-10-22T12:35:57.346Z,2.0133779264214047
2022-10-22T12:46:19.538Z,2.5050167224080266
2022-10-22T12:52:48.449Z,1.9632107023411371
2022-10-22T13:05:01.596Z,3.240802675585284
2022-10-22T13:15:32.616Z,1.9966555183946488
2022-10-22T13:22:01.386Z,1.919732441471572
2022-10-22T13:28:41.830Z,2.1070234113712374
2022-10-22T13:35:12.224Z,2.2040133779264215
2022-10-22T13:44:06.016Z,2.3377926421404682
2022-10-22T13:55:05.946Z,1.765886287625418
2022-10-22T14:01:36.348Z,2.317725752508361
2022-10-22T14:08:15.612Z,2.230769230769231
2022-10-22T14:15:00.602Z,1.5418060200668897
2022-10-22T14:21:28.857Z,2.331103678929766
2022-10-22T14:29:11.059Z,0.8361204013377926
2022-10-22T14:40:19.861Z,2.230769230769231
2022-10-22T14:47:13.913Z,2.4147157190635453
2022-10-22T14:55:41.889Z,1.6020066889632107
2022-10-22T15:15:18.213Z,1.745819397993311
2022-10-22T15:25:21.355Z,1.1036789297658862
2022-10-22T15:32:16.348Z,1.0702341137123745
2022-10-22T15:38:47.226Z,1.157190635451505
2022-10-22T15:45:43.026Z,1.0434782608695652
2022-10-22T15:52:15.529Z,1.7725752508361203
2022-10-22T15:58:44.339Z,1.1438127090301002
2022-10-22T16:05:15.658Z,1.5618729096989967
2022-10-22T16:11:46.421Z,1.8227424749163879
2022-10-22T16:20:33.762Z,1.6722408026755853
2022-10-22T16:27:08.291Z,2.0334448160535117
2022-10-22T16:39:07.195Z,1.7324414715719063
2022-10-22T16:45:50.913Z,1.879598662207358
2022-10-22T16:52:36.494Z,3.076923076923077
2022-10-22T16:59:16.057Z,2.4381270903010033
2022-10-22T17:05:51.602Z,2.779264214046823
2022-10-22T17:12:33.933Z,1.9765886287625418
2022-10-22T17:19:12.370Z,2.2441471571906355
2022-10-22T17:25:50.060Z,1.2307692307692308
2022-10-22T17:32:23.937Z,2.120401337792642
2022-10-22T17:38:55.161Z,2.68561872909699
2022-10-22T17:49:41.168Z,2.9498327759197323
2022-10-22T17:56:13.506Z,2.8060200668896322
2022-10-22T18:02:41.832Z,2.120401337792642
2022-10-22T18:09:17.299Z,1.9030100334448161
2022-10-22T18:15:53.009Z,2.277591973244147
2022-10-22T18:22:48.901Z,1.414715719063545
2022-10-22T18:29:42.514Z,1.9130434782608696
2022-10-22T18:36:19.319Z,2.9899665551839463
2022-10-22T18:49:57.209Z,1.9364548494983278
2022-10-22T18:57:04.530Z,3.4214046822742477
2022-10-22T19:06:55.728Z,1.8494983277591974
2022-10-22T19:23:40.436Z,2.17056856187291
2022-10-22T19:30:36.583Z,1.4849498327759196
2022-10-22T19:37:10.820Z,4.381270903010034
2022-10-22T19:43:45.977Z,2.197324414715719
2022-10-22T19:57:54.543Z,2.5752508361204014
2022-10-22T20:04:25.814Z,3.68561872909699
2022-10-22T20:11:03.955Z,3.6187290969899664
2022-10-22T20:17:33.919Z,2.448160535117057
2022-10-22T20:24:16.064Z,3.140468227424749
2022-10-22T20:30:49.244Z,3.1103678929765888
2022-10-22T21:04:15.544Z,2.7859531772575252
2022-10-22T21:13:43.643Z,3.408026755852843
2022-10-22T21:20:11.742Z,3.0702341137123748
2022-10-22T21:30:10.777Z,3.016722408026756
2022-10-22T21:42:51.719Z,4.103678929765886
2022-10-22T21:49:19.106Z,3.3043478260869565
2022-10-22T21:55:46.896Z,5.010033444816053
2022-10-22T22:02:14.913Z,3.2876254180602005
2022-10-22T22:08:44.125Z,5.441471571906354
2022-10-22T22:20:22.631Z,4.501672240802676
2022-10-22T22:30:07.192Z,2.140468227424749
2022-10-22T22:36:37.045Z,3.1270903010033444
2022-10-22T22:43:06.682Z,3.698996655518395
2022-10-22T22:55:41.336Z,3.080267558528428
2022-10-22T23:02:11.057Z,4.05685618729097
2022-10-22T23:17:12.540Z,4.739130434782608
2022-10-22T23:23:51.239Z,3.5217391304347827
2022-10-22T23:30:21.687Z,3.2073578595317724
2022-10-22T23:46:39.512Z,4.304347826086956
2022-10-22T23:53:22.336Z,3.076923076923077
